Costa Serena — ICAZ — position and weather

sailwx.info

Track history (hours):
 
Tides and Currents Weather Stations Pressure Air Temp Water Temp Dewpoint Dewpoint Depression Visibility Wind Speed Wind Dir Waves Ship Positions

Costa Serena

Last reported at 2018-Dec-11 12:10 UTC. Time now 2018-Dec-12 03:23 UTC.
Position N 31°06' E 122°28'.

Length 290 m; draft 8.2 m.

Type: Passenger vessel. MMSI: 247187600.

Date/timePositionNaut miles runAvg speedWind from/ knotsBaromVisibWave heightAir tempDewpointWater temp
2018-Dec-11 12:10N 31°06' E 122°28'212.2
2018-Dec-11 11:58N 31°06' E 122°25'2813.9
2018-Dec-11 09:58N 31°16' E 121°55'714.7
2018-Dec-11 09:30N 31°18' E 121°47'3 0.2
2018-Dec-10 17:34N 31°19' E 121°44'112.4
2018-Dec-10 17:30N 31°19' E 121°45'611.4
2018-Dec-10 17:00N 31°17' E 121°51'611.1
2018-Dec-10 16:30N 31°15' E 121°57'611.7
2018-Dec-10 16:00N 31°14' E 122°04'610.8
2018-Dec-10 15:27N 31°11' E 122°10'510.4
2018-Dec-10 15:00N 31°09' E 122°14'510.0
2018-Dec-10 14:30N 31°06' E 122°19'610.9
2018-Dec-10 13:59N 31°06' E 122°26'  
2018-Dec-06 18:03N 31°04' E 122°35'1513.7
2018-Dec-06 16:57N 31°07' E 122°18'2113.8
2018-Dec-06 15:25N 31°15' E 121°55'712.6
2018-Dec-06 14:53N 31°18' E 121°48'2 0.1
2018-Dec-05 22:19N 31°18' E 121°46'511.6
2018-Dec-05 21:51N 31°16' E 121°51'410.5
2018-Dec-05 21:30N 31°16' E 121°56'5 9.6
2018-Dec-05 21:00N 31°15' E 122°01'5 9.6
2018-Dec-05 20:30N 31°13' E 122°07'5 8.1
2018-Dec-05 19:55N 31°11' E 122°11'4 9.6
2018-Dec-05 19:28N 31°08' E 122°15'511.3
2018-Dec-05 18:59N 31°06' E 122°21'  
2018-Dec-02 14:54N 31°07' E 122°16'1914.1
2018-Dec-02 13:34N 31°15' E 121°56'113.6
2018-Dec-02 13:29N 31°16' E 121°55'10 0.7
2018-Dec-01 22:46N 31°19' E 121°44'2 8.8
2018-Dec-01 22:31N 31°18' E 121°47'6 9.1
2018-Dec-01 21:53N 31°16' E 121°53'410.2
2018-Dec-01 21:30N 31°15' E 121°57'5 9.6
2018-Dec-01 20:59N 31°14' E 122°03'510.0
2018-Dec-01 20:28N 31°12' E 122°09'4 9.8
2018-Dec-01 20:01N 31°09' E 122°13'5 8.1
2018-Dec-01 19:26N 31°07' E 122°17'3 8.0
2018-Dec-01 19:00N 31°06' E 122°21'11 8.7
2018-Dec-01 17:45N 31°07' E 122°34'  
Track history (hours):
 
Tides and Currents Weather Stations Pressure Air Temp Water Temp Dewpoint Dewpoint Depression Visibility Wind Speed Wind Dir Waves Ship Positions

Costa Serena

Last reported at 2018-Dec-11 12:10 UTC. Time now 2018-Dec-12 03:23 UTC.
Position N 31°06' E 122°28'.

Length 290 m; draft 8.2 m.

Type: Passenger vessel. MMSI: 247187600.

Date/timePositionNaut miles runAvg speedWind from/ knotsBaromVisibWave heightAir tempDewpointWater temp
2018-Dec-11 12:10N 31°06' E 122°28'212.2
2018-Dec-11 11:58N 31°06' E 122°25'2813.9
2018-Dec-11 09:58N 31°16' E 121°55'714.7
2018-Dec-11 09:30N 31°18' E 121°47'3 0.2
2018-Dec-10 17:34N 31°19' E 121°44'112.4
2018-Dec-10 17:30N 31°19' E 121°45'611.4
2018-Dec-10 17:00N 31°17' E 121°51'611.1
2018-Dec-10 16:30N 31°15' E 121°57'611.7
2018-Dec-10 16:00N 31°14' E 122°04'610.8
2018-Dec-10 15:27N 31°11' E 122°10'510.4
2018-Dec-10 15:00N 31°09' E 122°14'510.0
2018-Dec-10 14:30N 31°06' E 122°19'610.9
2018-Dec-10 13:59N 31°06' E 122°26'  
2018-Dec-06 18:03N 31°04' E 122°35'1513.7
2018-Dec-06 16:57N 31°07' E 122°18'2113.8
2018-Dec-06 15:25N 31°15' E 121°55'712.6
2018-Dec-06 14:53N 31°18' E 121°48'2 0.1
2018-Dec-05 22:19N 31°18' E 121°46'511.6
2018-Dec-05 21:51N 31°16' E 121°51'410.5
2018-Dec-05 21:30N 31°16' E 121°56'5 9.6
2018-Dec-05 21:00N 31°15' E 122°01'5 9.6
2018-Dec-05 20:30N 31°13' E 122°07'5 8.1
2018-Dec-05 19:55N 31°11' E 122°11'4 9.6
2018-Dec-05 19:28N 31°08' E 122°15'511.3
2018-Dec-05 18:59N 31°06' E 122°21'  
2018-Dec-02 14:54N 31°07' E 122°16'1914.1
2018-Dec-02 13:34N 31°15' E 121°56'113.6
2018-Dec-02 13:29N 31°16' E 121°55'10 0.7
2018-Dec-01 22:46N 31°19' E 121°44'2 8.8
2018-Dec-01 22:31N 31°18' E 121°47'6 9.1
2018-Dec-01 21:53N 31°16' E 121°53'410.2
2018-Dec-01 21:30N 31°15' E 121°57'5 9.6
2018-Dec-01 20:59N 31°14' E 122°03'510.0
2018-Dec-01 20:28N 31°12' E 122°09'4 9.8
2018-Dec-01 20:01N 31°09' E 122°13'5 8.1
2018-Dec-01 19:26N 31°07' E 122°17'3 8.0
2018-Dec-01 19:00N 31°06' E 122°21'11 8.7
2018-Dec-01 17:45N 31°07' E 122°34'  

Dump ship's entire track history